createdAt,value
2023-03-13T00:01:52.872Z,6.78
2023-03-13T00:04:24.777Z,6.80
2023-03-13T00:06:51.437Z,6.74
2023-03-13T00:09:18.563Z,6.66
2023-03-13T00:11:45.856Z,6.65
2023-03-13T00:14:20.255Z,6.60
2023-03-13T00:16:49.463Z,6.57
2023-03-13T00:19:21.246Z,6.63
2023-03-13T00:21:53.139Z,6.63
2023-03-13T00:24:29.640Z,6.69
2023-03-13T00:26:56.537Z,6.63
2023-03-13T00:29:26.577Z,6.53
2023-03-13T00:31:56.890Z,6.49
2023-03-13T00:34:43.754Z,6.52
2023-03-13T00:37:10.364Z,6.36
2023-03-13T00:39:41.050Z,6.37
2023-03-13T00:42:08.492Z,6.46
2023-03-13T00:44:35.080Z,6.43
2023-03-13T00:47:05.526Z,6.34
2023-03-13T00:49:32.188Z,6.48
2023-03-13T00:52:04.314Z,6.58
2023-03-13T00:54:40.636Z,6.65
2023-03-13T00:57:12.873Z,6.69
2023-03-13T00:59:39.825Z,6.62
2023-03-13T01:02:06.537Z,6.61
2023-03-13T01:04:37.928Z,6.54
2023-03-13T01:07:04.551Z,6.61
2023-03-13T01:09:34.597Z,6.61
2023-03-13T01:12:03.730Z,6.64
2023-03-13T01:14:33.618Z,6.56
2023-03-13T01:17:08.266Z,6.43
2023-03-13T01:19:39.933Z,6.39
2023-03-13T01:22:06.511Z,6.38
2023-03-13T01:24:48.429Z,6.44
2023-03-13T01:27:15.103Z,6.44
2023-03-13T01:29:44.014Z,6.50
2023-03-13T01:32:10.719Z,6.64
2023-03-13T01:34:40.647Z,6.78
2023-03-13T01:37:16.396Z,6.83
2023-03-13T01:39:48.410Z,7.01
2023-03-13T01:42:19.766Z,7.16
2023-03-13T01:44:53.513Z,7.09
2023-03-13T01:47:22.222Z,7.14
2023-03-13T01:50:10.869Z,7.09
2023-03-13T01:53:07.595Z,7.24
2023-03-13T01:55:38.879Z,7.18
2023-03-13T01:58:14.879Z,7.20
2023-03-13T02:00:47.445Z,7.27
2023-03-13T02:03:23.891Z,7.35
2023-03-13T02:05:51.512Z,7.31
2023-03-13T02:08:24.077Z,7.28
2023-03-13T02:11:07.135Z,7.24
2023-03-13T02:13:36.343Z,7.30
2023-03-13T02:16:11.563Z,7.24
2023-03-13T02:18:43.553Z,7.06
2023-03-13T02:21:15.090Z,7.08
2023-03-13T02:23:56.147Z,7.04
2023-03-13T02:26:31.747Z,6.98
2023-03-13T02:29:05.519Z,7.04
2023-03-13T02:31:34.654Z,7.07
2023-03-13T02:34:01.471Z,7.15
2023-03-13T02:36:39.447Z,7.24
2023-03-13T02:39:06.686Z,7.39
2023-03-13T02:41:36.956Z,7.26
2023-03-13T02:44:05.787Z,7.32
2023-03-13T02:46:50.698Z,7.17
2023-03-13T02:49:24.829Z,7.03
2023-03-13T02:51:52.377Z,6.99
2023-03-13T02:54:29.328Z,6.97
2023-03-13T02:56:56.700Z,6.86
2023-03-13T02:59:24.058Z,6.96
2023-03-13T03:01:52.808Z,6.73
2023-03-13T03:04:23.243Z,6.65
2023-03-13T03:06:54.789Z,6.58
2023-03-13T03:09:22.428Z,6.44
2023-03-13T03:11:52.136Z,6.30
2023-03-13T03:14:19.137Z,6.19
2023-03-13T03:16:47.742Z,6.21
2023-03-13T03:19:14.776Z,6.38
2023-03-13T03:21:43.925Z,6.30
2023-03-13T03:24:10.597Z,6.40
2023-03-13T03:26:37.569Z,6.35
2023-03-13T03:29:11.126Z,6.12
2023-03-13T03:31:40.974Z,5.98
2023-03-13T03:34:09.570Z,6.00
2023-03-13T03:36:36.232Z,5.86
2023-03-13T03:39:03.268Z,5.68
2023-03-13T03:41:31.189Z,5.58
2023-03-13T03:43:59.033Z,5.45
2023-03-13T03:46:32.826Z,5.39
2023-03-13T03:48:59.664Z,5.34
2023-03-13T03:51:26.324Z,5.34
2023-03-13T03:53:52.919Z,5.35
2023-03-13T03:56:20.043Z,5.42
2023-03-13T03:58:51.671Z,5.58
2023-03-13T04:01:24.356Z,5.50
2023-03-13T04:03:51.032Z,5.43
2023-03-13T04:06:21.201Z,5.54
2023-03-13T04:08:48.057Z,5.55
2023-03-13T04:11:20.488Z,5.53
2023-03-13T04:13:50.464Z,5.60
2023-03-13T04:16:19.887Z,5.71
2023-03-13T04:18:47.746Z,5.65
2023-03-13T04:21:17.123Z,5.77
2023-03-13T04:23:48.505Z,5.88
2023-03-13T04:26:15.913Z,5.93
2023-03-13T04:28:46.458Z,5.97
2023-03-13T04:31:19.713Z,6.00
2023-03-13T04:34:01.290Z,6.11
2023-03-13T04:36:53.541Z,6.14
2023-03-13T04:39:37.573Z,6.17
2023-03-13T04:42:27.244Z,6.23
2023-03-13T04:45:14.205Z,6.23
2023-03-13T04:47:52.273Z,6.21
2023-03-13T04:50:30.729Z,6.06
2023-03-13T04:53:15.955Z,6.02
2023-03-13T04:56:03.222Z,6.09
2023-03-13T04:58:54.750Z,5.94
2023-03-13T05:01:52.773Z,5.88
2023-03-13T05:04:37.831Z,5.82
2023-03-13T05:07:25.223Z,6.04
2023-03-13T05:10:27.003Z,6.02
2023-03-13T05:13:07.608Z,5.91
2023-03-13T05:15:45.372Z,5.84
2023-03-13T05:18:32.293Z,5.88
2023-03-13T05:21:18.144Z,5.86
2023-03-13T05:24:03.478Z,5.87
2023-03-13T05:26:56.240Z,5.96
2023-03-13T05:29:35.448Z,6.14
2023-03-13T05:32:37.908Z,6.18
2023-03-13T05:35:24.914Z,6.29
2023-03-13T05:38:12.119Z,6.38
2023-03-13T05:40:58.170Z,6.44
2023-03-13T05:43:42.381Z,6.50
2023-03-13T05:46:29.248Z,6.59
2023-03-13T05:49:14.727Z,6.69
2023-03-13T05:51:59.894Z,6.72
2023-03-13T05:54:50.385Z,6.94
2023-03-13T05:57:35.975Z,7.12
2023-03-13T06:00:09.020Z,7.07
2023-03-13T06:02:50.868Z,7.06
2023-03-13T06:05:23.863Z,7.08
2023-03-13T06:07:50.872Z,7.08
2023-03-13T06:10:17.938Z,7.04
2023-03-13T06:12:46.975Z,7.10
2023-03-13T06:15:14.491Z,7.02
2023-03-13T06:17:55.733Z,6.97
2023-03-13T06:20:22.758Z,6.88
2023-03-13T06:22:49.446Z,6.83
2023-03-13T06:25:18.390Z,6.84
2023-03-13T06:27:44.966Z,6.81
2023-03-13T06:30:12.030Z,6.88
2023-03-13T06:32:38.756Z,6.96
2023-03-13T06:35:10.260Z,7.01
2023-03-13T06:37:36.905Z,7.10
2023-03-13T06:40:06.712Z,7.17
2023-03-13T06:42:36.242Z,7.18
2023-03-13T06:45:07.873Z,7.14
2023-03-13T06:47:34.652Z,6.97
2023-03-13T06:50:01.345Z,7.05
2023-03-13T06:52:41.398Z,7.13
2023-03-13T06:55:10.229Z,7.00
2023-03-13T06:57:36.793Z,7.11
2023-03-13T07:00:06.733Z,6.97
2023-03-13T07:02:35.672Z,6.92
2023-03-13T07:05:05.920Z,6.89
2023-03-13T07:07:34.024Z,6.99
2023-03-13T07:10:03.284Z,6.94
2023-03-13T07:12:32.440Z,7.21
2023-03-13T07:14:59.079Z,7.23
2023-03-13T07:17:25.779Z,7.01
2023-03-13T07:19:54.766Z,6.99
2023-03-13T07:22:21.581Z,6.98
2023-03-13T07:24:51.101Z,7.14
2023-03-13T07:27:17.908Z,7.13
2023-03-13T07:29:47.066Z,7.28
2023-03-13T07:32:16.192Z,7.22
2023-03-13T07:34:44.975Z,6.83
2023-03-13T07:37:14.696Z,6.74
2023-03-13T07:39:41.966Z,6.72
2023-03-13T07:42:10.315Z,6.76
2023-03-13T07:44:36.898Z,6.90
2023-03-13T07:47:03.482Z,6.97
2023-03-13T07:49:30.422Z,7.03
2023-03-13T07:51:59.448Z,7.07
2023-03-13T07:54:26.066Z,6.96
2023-03-13T07:56:55.105Z,7.12
2023-03-13T07:59:24.511Z,7.20
2023-03-13T08:01:53.662Z,7.25
2023-03-13T08:04:20.446Z,7.46
2023-03-13T08:06:49.445Z,7.41
2023-03-13T08:09:16.414Z,7.36
2023-03-13T08:11:44.689Z,7.58
2023-03-13T08:14:14.232Z,7.81
2023-03-13T08:16:41.271Z,7.97
2023-03-13T08:19:13.353Z,8.11
2023-03-13T08:21:39.955Z,8.32
2023-03-13T08:24:07.243Z,8.59
2023-03-13T08:26:34.910Z,8.85
2023-03-13T08:29:02.266Z,8.98
2023-03-13T08:31:30.008Z,8.95
2023-03-13T08:33:56.703Z,9.01
2023-03-13T08:36:33.442Z,8.84
2023-03-13T08:39:00.877Z,8.78
2023-03-13T08:41:30.107Z,8.92
2023-03-13T08:43:59.321Z,9.23
2023-03-13T08:46:26.322Z,9.23
2023-03-13T08:48:54.104Z,9.33
2023-03-13T08:51:21.693Z,9.41
2023-03-13T08:53:48.422Z,9.53
2023-03-13T08:56:18.956Z,9.63
2023-03-13T08:58:51.561Z,9.69
2023-03-13T09:01:18.427Z,9.72
2023-03-13T09:03:45.195Z,9.63
2023-03-13T09:06:12.113Z,9.71
2023-03-13T09:08:39.203Z,9.85
2023-03-13T09:11:06.965Z,10.00
2023-03-13T09:13:37.554Z,10.13
2023-03-13T09:16:10.758Z,9.28
2023-03-13T09:18:40.654Z,10.51
2023-03-13T09:21:08.264Z,10.68
2023-03-13T09:23:36.959Z,10.63
2023-03-13T09:26:03.878Z,10.69
2023-03-13T09:28:30.973Z,10.74
2023-03-13T09:31:08.521Z,10.77
2023-03-13T09:33:38.210Z,11.02
2023-03-13T09:36:09.739Z,11.20
2023-03-13T09:38:39.215Z,11.44
2023-03-13T09:41:26.161Z,11.59
2023-03-13T09:43:57.120Z,11.68
2023-03-13T09:46:25.651Z,11.51
2023-03-13T09:48:58.850Z,11.71
2023-03-13T09:51:30.094Z,11.87
2023-03-13T09:53:58.013Z,11.77
2023-03-13T09:56:25.402Z,11.80
2023-03-13T09:58:54.409Z,11.92
2023-03-13T10:01:25.978Z,12.12
2023-03-13T10:03:55.192Z,12.27
2023-03-13T10:06:22.051Z,12.47
2023-03-13T10:08:48.788Z,12.56
2023-03-13T10:11:29.075Z,12.62
2023-03-13T10:14:01.746Z,12.83
2023-03-13T10:16:39.480Z,12.77
2023-03-13T10:19:12.897Z,12.90
2023-03-13T10:21:39.591Z,13.11
2023-03-13T10:24:14.720Z,13.15
2023-03-13T10:26:43.441Z,13.27
2023-03-13T10:29:26.315Z,13.03
2023-03-13T10:31:59.966Z,13.23
2023-03-13T10:34:32.091Z,13.36
2023-03-13T10:36:59.797Z,13.42
2023-03-13T10:39:27.537Z,13.58
2023-03-13T10:42:20.948Z,13.60
2023-03-13T10:44:50.104Z,14.07
2023-03-13T10:47:16.700Z,14.23
2023-03-13T10:49:53.227Z,14.10
2023-03-13T10:52:43.276Z,13.84
2023-03-13T10:55:11.328Z,13.86
2023-03-13T10:57:37.902Z,14.04
2023-03-13T11:00:10.523Z,13.97
2023-03-13T11:02:38.637Z,14.18
2023-03-13T11:05:23.873Z,14.31
2023-03-13T11:07:50.527Z,14.45
2023-03-13T11:10:18.468Z,14.56
2023-03-13T11:12:51.567Z,14.78
2023-03-13T11:15:25.847Z,14.95
2023-03-13T11:17:54.812Z,14.82
2023-03-13T11:20:25.506Z,14.96
2023-03-13T11:23:01.480Z,15.04
2023-03-13T11:25:33.925Z,15.15
2023-03-13T11:28:03.912Z,15.24
2023-03-13T11:30:42.608Z,15.43
2023-03-13T11:33:23.473Z,15.64
2023-03-13T11:35:50.956Z,15.80
2023-03-13T11:38:36.958Z,15.85
2023-03-13T11:41:06.662Z,15.76
2023-03-13T11:43:48.299Z,16.21
2023-03-13T11:46:15.381Z,16.52
2023-03-13T11:48:53.978Z,16.81
2023-03-13T11:51:33.289Z,16.81
2023-03-13T11:54:05.145Z,16.67
2023-03-13T11:56:50.032Z,16.74
2023-03-13T11:59:19.900Z,16.44
2023-03-13T12:01:52.296Z,16.04
2023-03-13T12:04:26.382Z,16.04
2023-03-13T12:06:56.040Z,15.60
2023-03-13T12:09:23.074Z,15.27
2023-03-13T12:11:55.733Z,15.25
2023-03-13T12:14:28.563Z,16.09
2023-03-13T12:16:56.578Z,16.82
2023-03-13T12:19:26.483Z,17.25
2023-03-13T12:21:53.975Z,17.65
2023-03-13T12:24:24.074Z,17.73
2023-03-13T12:26:54.458Z,17.98
2023-03-13T12:29:21.098Z,18.61
2023-03-13T12:31:49.323Z,18.29
2023-03-13T12:34:18.915Z,18.29
2023-03-13T12:36:45.512Z,18.83
2023-03-13T12:39:18.181Z,19.31
2023-03-13T12:41:45.622Z,19.16
2023-03-13T12:44:14.945Z,18.70
2023-03-13T12:46:43.198Z,18.73
2023-03-13T12:49:18.451Z,19.12
2023-03-13T12:51:48.500Z,19.64
2023-03-13T12:54:15.506Z,19.59
2023-03-13T12:57:00.932Z,19.43
2023-03-13T12:59:33.492Z,20.22
2023-03-13T13:02:00.570Z,19.63
2023-03-13T13:04:27.585Z,19.57
2023-03-13T13:06:59.447Z,20.00
2023-03-13T13:09:27.400Z,19.96
2023-03-13T13:11:55.459Z,19.76
2023-03-13T13:14:22.376Z,19.34
2023-03-13T13:16:51.886Z,19.72
2023-03-13T13:19:24.475Z,20.41
2023-03-13T13:22:13.207Z,20.90
2023-03-13T13:24:39.791Z,19.93
2023-03-13T13:27:13.322Z,20.04
2023-03-13T13:29:42.305Z,20.33
2023-03-13T13:32:14.502Z,20.71
2023-03-13T13:34:53.360Z,20.88
2023-03-13T13:37:23.197Z,21.07
2023-03-13T13:39:52.902Z,20.53
2023-03-13T13:42:29.025Z,20.03
2023-03-13T13:45:01.129Z,20.15
2023-03-13T13:47:33.522Z,20.26
2023-03-13T13:50:15.163Z,21.02
2023-03-13T13:52:42.354Z,20.88
2023-03-13T13:55:27.699Z,20.21
2023-03-13T13:58:06.875Z,20.58
2023-03-13T14:00:40.965Z,21.18
2023-03-13T14:03:24.009Z,21.54
2023-03-13T14:05:54.792Z,20.89
2023-03-13T14:08:30.775Z,20.49
2023-03-13T14:10:57.390Z,19.67
2023-03-13T14:13:24.959Z,18.73
2023-03-13T14:15:53.878Z,19.05
2023-03-13T14:18:21.344Z,20.42
2023-03-13T14:20:53.349Z,21.30
2023-03-13T14:23:32.582Z,21.95
2023-03-13T14:26:01.586Z,21.79
2023-03-13T14:28:28.810Z,21.00
2023-03-13T14:31:00.163Z,20.22
2023-03-13T14:33:28.272Z,19.65
2023-03-13T14:36:00.404Z,19.11
2023-03-13T14:38:27.934Z,18.81
2023-03-13T14:40:55.760Z,18.62
2023-03-13T14:43:25.819Z,18.39
2023-03-13T14:45:52.602Z,18.63
2023-03-13T14:48:31.090Z,18.55
2023-03-13T14:51:14.230Z,18.59
2023-03-13T14:53:55.567Z,18.73
2023-03-13T14:56:30.196Z,18.78
2023-03-13T14:59:06.134Z,18.53
2023-03-13T15:01:32.837Z,18.82
2023-03-13T15:03:59.889Z,19.05
2023-03-13T15:06:28.168Z,19.08
2023-03-13T15:09:27.514Z,18.77
2023-03-13T15:11:58.250Z,18.67
2023-03-13T15:14:37.315Z,19.11
2023-03-13T15:17:06.816Z,20.00
2023-03-13T15:19:33.412Z,20.52
2023-03-13T15:22:02.343Z,20.36
2023-03-13T15:24:29.033Z,19.92
2023-03-13T15:27:00.211Z,19.44
2023-03-13T15:29:26.824Z,19.22
2023-03-13T15:32:04.108Z,18.85
2023-03-13T15:34:34.415Z,18.37
2023-03-13T15:37:00.990Z,17.71
2023-03-13T15:39:29.632Z,17.18
2023-03-13T15:41:56.404Z,16.95
2023-03-13T15:44:22.973Z,16.90
2023-03-13T15:46:49.778Z,16.78
2023-03-13T15:49:18.686Z,16.59
2023-03-13T15:51:45.427Z,16.56
2023-03-13T15:54:14.421Z,16.36
2023-03-13T15:56:41.165Z,16.07
2023-03-13T15:59:15.002Z,15.95
2023-03-13T16:01:48.572Z,15.99
2023-03-13T16:04:15.731Z,15.97
2023-03-13T16:06:44.805Z,16.03
2023-03-13T16:09:14.197Z,15.82
2023-03-13T16:11:40.844Z,15.71
2023-03-13T16:14:07.525Z,15.79
2023-03-13T16:16:37.282Z,15.80
2023-03-13T16:19:07.821Z,15.85
2023-03-13T16:21:40.390Z,15.75
2023-03-13T16:24:07.085Z,15.69
2023-03-13T16:26:33.841Z,15.61
2023-03-13T16:29:00.500Z,15.56
2023-03-13T16:31:30.724Z,15.42
2023-03-13T16:33:58.125Z,15.32
2023-03-13T16:36:30.229Z,15.22
2023-03-13T16:38:57.523Z,15.09
2023-03-13T16:41:25.108Z,14.99
2023-03-13T16:43:51.798Z,14.88
2023-03-13T16:46:19.917Z,14.75
2023-03-13T16:48:46.985Z,14.69
2023-03-13T16:51:17.522Z,14.66
2023-03-13T16:53:45.584Z,14.67
2023-03-13T16:56:27.381Z,14.59
2023-03-13T16:58:54.308Z,14.55
2023-03-13T17:01:26.081Z,14.56
2023-03-13T17:03:55.185Z,14.55
2023-03-13T17:06:24.886Z,14.47
2023-03-13T17:08:54.066Z,14.45
2023-03-13T17:11:23.466Z,14.40
2023-03-13T17:13:51.006Z,14.34
2023-03-13T17:16:24.932Z,14.30
2023-03-13T17:18:52.534Z,14.25
2023-03-13T17:21:23.647Z,14.25
2023-03-13T17:23:50.390Z,14.19
2023-03-13T17:26:17.403Z,14.20
2023-03-13T17:28:44.594Z,14.22
2023-03-13T17:31:15.705Z,14.21
2023-03-13T17:33:44.939Z,14.26
2023-03-13T17:36:18.641Z,14.13
2023-03-13T17:38:49.549Z,14.07
2023-03-13T17:41:18.233Z,14.07
2023-03-13T17:43:47.332Z,14.03
2023-03-13T17:46:16.566Z,14.02
2023-03-13T17:48:43.301Z,14.00
2023-03-13T17:51:23.458Z,13.96
2023-03-13T17:53:52.922Z,13.95
2023-03-13T17:56:26.503Z,13.89
2023-03-13T17:58:56.404Z,13.81
2023-03-13T18:01:23.985Z,13.76
2023-03-13T18:03:50.811Z,13.74
2023-03-13T18:06:31.220Z,13.71
2023-03-13T18:09:08.192Z,13.74
2023-03-13T18:11:35.515Z,13.67
2023-03-13T18:14:05.426Z,13.63
2023-03-13T18:16:39.151Z,13.61
2023-03-13T18:19:15.260Z,13.62
2023-03-13T18:21:42.828Z,13.59
2023-03-13T18:24:09.636Z,13.60
2023-03-13T18:26:37.040Z,13.53
2023-03-13T18:29:06.714Z,13.49
2023-03-13T18:31:41.858Z,13.45
2023-03-13T18:34:08.537Z,13.39
2023-03-13T18:36:35.121Z,13.41
2023-03-13T18:39:01.884Z,13.39
2023-03-13T18:41:28.975Z,13.33
2023-03-13T18:43:55.594Z,13.29
2023-03-13T18:46:23.693Z,13.22
2023-03-13T18:48:50.762Z,13.15
2023-03-13T18:51:17.995Z,13.17
2023-03-13T18:53:44.933Z,13.18
2023-03-13T18:56:40.058Z,13.20
2023-03-13T18:59:07.284Z,13.27
2023-03-13T19:01:34.018Z,13.24
2023-03-13T19:04:01.170Z,13.25
2023-03-13T19:06:28.853Z,13.18
2023-03-13T19:09:00.282Z,13.08
2023-03-13T19:11:27.899Z,13.00
2023-03-13T19:13:54.739Z,12.93
2023-03-13T19:16:31.031Z,12.89
2023-03-13T19:19:00.029Z,12.87
2023-03-13T19:21:30.267Z,12.86
2023-03-13T19:23:57.457Z,12.79
2023-03-13T19:26:41.854Z,12.83
2023-03-13T19:29:12.961Z,12.77
2023-03-13T19:31:39.701Z,12.68
2023-03-13T19:34:06.498Z,12.62
2023-03-13T19:36:36.285Z,12.59
2023-03-13T19:39:13.169Z,12.51
2023-03-13T19:41:39.842Z,12.48
2023-03-13T19:44:06.607Z,12.46
2023-03-13T19:46:33.217Z,12.46
2023-03-13T19:49:04.775Z,12.52
2023-03-13T19:51:36.713Z,12.51
2023-03-13T19:54:10.388Z,12.46
2023-03-13T19:56:40.261Z,12.43
2023-03-13T19:59:09.850Z,12.44
2023-03-13T20:01:38.981Z,12.38
2023-03-13T20:04:06.085Z,12.34
2023-03-13T20:06:34.928Z,12.30
2023-03-13T20:09:06.098Z,12.23
2023-03-13T20:11:32.690Z,12.18
2023-03-13T20:14:00.005Z,12.17
2023-03-13T20:16:28.083Z,12.11
2023-03-13T20:18:58.096Z,12.07
2023-03-13T20:21:27.659Z,12.02
2023-03-13T20:23:54.436Z,11.97
2023-03-13T20:26:21.903Z,11.95
2023-03-13T20:28:49.773Z,11.94
2023-03-13T20:31:17.295Z,11.95
2023-03-13T20:33:43.919Z,11.92
2023-03-13T20:36:14.268Z,11.85
2023-03-13T20:38:41.131Z,11.71
2023-03-13T20:41:08.319Z,11.57
2023-03-13T20:43:38.022Z,11.55
2023-03-13T20:46:07.427Z,11.49
2023-03-13T20:48:39.397Z,11.50
2023-03-13T20:51:08.844Z,11.53
2023-03-13T20:53:38.936Z,11.52
2023-03-13T20:56:08.490Z,11.50
2023-03-13T20:58:35.642Z,11.49
2023-03-13T21:01:03.410Z,11.48
2023-03-13T21:03:35.729Z,11.47
2023-03-13T21:06:38.078Z,11.41
2023-03-13T21:09:05.807Z,11.42
2023-03-13T21:11:37.293Z,11.39
2023-03-13T21:14:04.004Z,11.35
2023-03-13T21:16:31.062Z,11.34
2023-03-13T21:19:00.946Z,11.38
2023-03-13T21:21:29.260Z,11.35
2023-03-13T21:23:55.873Z,11.28
2023-03-13T21:26:24.905Z,11.17
2023-03-13T21:28:53.059Z,11.19
2023-03-13T21:31:20.874Z,11.21
2023-03-13T21:33:50.339Z,11.17
2023-03-13T21:36:22.861Z,11.07
2023-03-13T21:38:50.068Z,11.14
2023-03-13T21:41:20.307Z,11.10
2023-03-13T21:43:47.570Z,11.07
2023-03-13T21:46:15.609Z,11.04
2023-03-13T21:48:43.167Z,11.00
2023-03-13T21:51:10.610Z,10.97
2023-03-13T21:53:42.225Z,10.99
2023-03-13T21:56:09.141Z,10.97
2023-03-13T21:58:38.145Z,10.95
2023-03-13T22:01:04.862Z,10.92
2023-03-13T22:03:32.416Z,10.89
2023-03-13T22:05:59.136Z,10.77
2023-03-13T22:08:25.905Z,10.71
2023-03-13T22:11:29.197Z,10.67
2023-03-13T22:13:58.759Z,10.59
2023-03-13T22:16:30.141Z,10.53
2023-03-13T22:18:59.188Z,10.49
2023-03-13T22:21:25.793Z,10.47
2023-03-13T22:23:52.451Z,10.50
2023-03-13T22:26:19.184Z,10.59
2023-03-13T22:28:48.235Z,10.54
2023-03-13T22:31:14.869Z,10.47
2023-03-13T22:33:41.584Z,10.44
2023-03-13T22:36:08.948Z,10.45
2023-03-13T22:38:41.164Z,10.46
2023-03-13T22:41:08.722Z,10.40
2023-03-13T22:43:37.911Z,10.33
2023-03-13T22:46:04.790Z,10.32
2023-03-13T22:48:32.042Z,10.35
2023-03-13T22:51:08.537Z,10.34
2023-03-13T22:53:36.023Z,10.32
2023-03-13T22:56:02.614Z,10.29
2023-03-13T22:58:29.320Z,10.23
2023-03-13T23:01:00.794Z,10.18
2023-03-13T23:03:27.507Z,10.22
2023-03-13T23:05:54.209Z,10.19
2023-03-13T23:08:23.251Z,10.23
2023-03-13T23:10:52.331Z,10.18
2023-03-13T23:13:18.917Z,10.18
2023-03-13T23:15:55.514Z,10.11
2023-03-13T23:18:23.309Z,10.08
2023-03-13T23:20:52.247Z,10.07
2023-03-13T23:23:18.923Z,10.06
2023-03-13T23:25:45.576Z,10.10
2023-03-13T23:28:12.425Z,10.07
2023-03-13T23:30:39.096Z,10.08
2023-03-13T23:33:08.046Z,10.06
2023-03-13T23:35:39.114Z,10.03
2023-03-13T23:38:05.843Z,9.98
2023-03-13T23:40:32.824Z,10.06
2023-03-13T23:42:59.433Z,10.03
2023-03-13T23:45:30.845Z,10.01
2023-03-13T23:47:57.431Z,9.99
2023-03-13T23:50:26.686Z,9.94
2023-03-13T23:52:55.671Z,9.95
2023-03-13T23:55:24.772Z,9.93
2023-03-13T23:57:51.442Z,9.93
